Time;durP1;ratioP1;P1;durP2;ratioP2;P2;SDS_P1;SDS_P2;PMS_P1;PMS_P2;Temp;Humidity;BMP_temperature;BMP_pressure;BME280_temperature;BME280_humidity;BME280_pressure;Samples;Min_cycle;Max_cycle;Signal;HPM_P1;HPM_P2
2024/01/19 00:00:09;;;;;;;85.05;38.78;;;;;;;;;;1050050;28;20036;-65
2024/01/19 00:01:00;;;;;;;77.95;36.00;;;;;;;;;;1046777;28;20534;-65
2024/01/19 00:01:49;;;;;;;86.00;39.90;;;;;;;;;;1049441;28;20519;-64
2024/01/19 00:02:19;;;;;;;88.53;39.60;;;;;;;;;;1050765;28;20028;-65
2024/01/19 00:02:50;;;;;;;68.63;31.42;;;;;;;;;;1049969;28;20052;-64
2024/01/19 00:03:20;;;;;;;85.68;41.17;;;;;;;;;;1048348;28;20048;-65
2024/01/19 00:03:51;;;;;;;86.40;40.20;;;;;;;;;;1048288;28;20044;-64
2024/01/19 00:04:22;;;;;;;87.80;40.70;;;;;;;;;;1050806;28;20056;-65
2024/01/19 00:04:52;;;;;;;88.82;41.05;;;;;;;;;;1050653;28;20044;-65
2024/01/19 00:05:23;;;;;;;87.65;40.92;;;;;;;;;;1050822;28;20044;-65
2024/01/19 00:05:53;;;;;;;93.40;41.53;;;;;;;;;;1050771;28;20044;-65
2024/01/19 00:06:24;;;;;;;90.90;41.65;;;;;;;;;;1050641;28;20052;-65
2024/01/19 00:06:55;;;;;;;88.45;42.08;;;;;;;;;;1050298;28;20055;-65
2024/01/19 00:07:25;;;;;;;79.93;38.20;;;;;;;;;;1050631;28;20048;-65
2024/01/19 00:07:56;;;;;;;83.03;38.45;;;;;;;;;;1050172;28;21306;-65
2024/01/19 00:08:26;;;;;;;75.45;37.75;;;;;;;;;;1050352;28;20377;-65
2024/01/19 00:08:59;;;;;;;80.72;39.88;;;;;;;;;;1050659;28;20044;-65
2024/01/19 00:09:30;;;;;;;87.78;40.08;;;;;;;;;;1050833;28;20472;-65
2024/01/19 00:10:01;;;;;;;80.47;39.22;;;;;;;;;;1050767;28;20453;-64
2024/01/19 00:10:32;;;;;;;77.20;38.40;;;;;;;;;;1051359;28;20040;-65
2024/01/19 00:11:03;;;;;;;77.57;36.60;;;;;;;;;;1047892;28;20051;-64
2024/01/19 00:11:34;;;;;;;85.88;40.53;;;;;;;;;;1047294;28;20719;-64
2024/01/19 00:12:04;;;;;;;76.70;37.75;;;;;;;;;;1045886;28;20048;-65
2024/01/19 00:12:35;;;;;;;89.70;40.35;;;;;;;;;;1047373;28;20052;-64
2024/01/19 00:13:06;;;;;;;86.43;40.50;;;;;;;;;;1045909;28;20420;-65
2024/01/19 00:13:36;;;;;;;85.88;38.92;;;;;;;;;;1046910;28;20467;-65
2024/01/19 00:14:07;;;;;;;88.15;40.42;;;;;;;;;;1046648;28;20036;-65
2024/01/19 00:14:38;;;;;;;81.65;41.55;;;;;;;;;;1045871;28;20048;-65
2024/01/19 00:15:09;;;;;;;80.18;38.58;;;;;;;;;;1046869;28;20098;-65
2024/01/19 00:15:39;;;;;;;79.32;38.08;;;;;;;;;;1045705;28;20049;-65
2024/01/19 00:16:10;;;;;;;83.05;40.67;;;;;;;;;;1046823;28;20044;-65
2024/01/19 00:16:42;;;;;;;78.07;38.42;;;;;;;;;;1046123;28;20707;-65
2024/01/19 00:17:12;;;;;;;86.18;38.00;;;;;;;;;;1049140;28;20088;-65
2024/01/19 00:17:43;;;;;;;71.53;34.58;;;;;;;;;;1046068;28;20053;-65
2024/01/19 00:18:14;;;;;;;90.70;37.97;;;;;;;;;;1047067;28;20056;-65
2024/01/19 00:18:44;;;;;;;75.65;36.30;;;;;;;;;;1046359;28;20052;-65
2024/01/19 00:19:15;;;;;;;73.25;33.22;;;;;;;;;;1046657;28;20045;-65
2024/01/19 00:19:45;;;;;;;69.10;32.88;;;;;;;;;;1047774;28;20054;-65
2024/01/19 00:20:16;;;;;;;72.93;35.10;;;;;;;;;;1050906;28;20436;-64
2024/01/19 00:20:46;;;;;;;74.68;35.70;;;;;;;;;;1049992;28;20056;-65
2024/01/19 00:21:17;;;;;;;74.72;35.22;;;;;;;;;;1046818;28;20070;-64
2024/01/19 00:21:48;;;;;;;73.15;33.97;;;;;;;;;;1049974;28;20048;-65
2024/01/19 00:22:18;;;;;;;71.00;35.00;;;;;;;;;;1048467;28;20122;-65
2024/01/19 00:22:48;;;;;;;75.95;34.72;;;;;;;;;;1050912;28;20109;-65
2024/01/19 00:23:19;;;;;;;66.15;34.13;;;;;;;;;;1050234;28;20067;-65
2024/01/19 00:23:50;;;;;;;71.18;34.10;;;;;;;;;;1050758;28;20495;-65
2024/01/19 00:24:20;;;;;;;70.60;34.20;;;;;;;;;;1050481;28;20043;-64
2024/01/19 00:24:51;;;;;;;66.13;31.30;;;;;;;;;;1046203;28;20504;-64
2024/01/19 00:25:21;;;;;;;63.53;30.77;;;;;;;;;;1046911;28;20128;-64
2024/01/19 00:25:52;;;;;;;60.28;30.00;;;;;;;;;;1045987;28;20054;-65
2024/01/19 00:26:23;;;;;;;68.95;31.45;;;;;;;;;;1046717;28;20124;-65
2024/01/19 00:26:54;;;;;;;66.60;31.30;;;;;;;;;;1045484;28;20048;-64
2024/01/19 00:27:25;;;;;;;60.78;31.20;;;;;;;;;;1050275;28;20071;-64
2024/01/19 00:27:56;;;;;;;69.85;32.17;;;;;;;;;;1050451;28;20053;-64
2024/01/19 00:28:26;;;;;;;64.63;31.15;;;;;;;;;;1050587;28;20058;-64
2024/01/19 00:28:57;;;;;;;66.88;32.28;;;;;;;;;;1050779;28;20105;-65
2024/01/19 00:29:28;;;;;;;67.38;32.28;;;;;;;;;;1050569;28;20378;-65
2024/01/19 00:29:59;;;;;;;70.72;34.50;;;;;;;;;;1050948;28;20048;-65
2024/01/19 00:30:29;;;;;;;60.03;30.20;;;;;;;;;;1046660;28;20049;-65
2024/01/19 00:31:00;;;;;;;60.92;29.02;;;;;;;;;;1043410;28;20053;-65
2024/01/19 00:31:31;;;;;;;59.42;33.00;;;;;;;;;;1041981;28;20128;-65
2024/01/19 00:32:02;;;;;;;65.95;31.92;;;;;;;;;;1041907;28;20059;-65
2024/01/19 00:32:32;;;;;;;69.00;33.63;;;;;;;;;;1042268;28;20055;-64
2024/01/19 00:33:03;;;;;;;79.78;33.70;;;;;;;;;;1044450;28;20049;-65
2024/01/19 00:33:34;;;;;;;65.47;33.08;;;;;;;;;;1046135;28;20052;-65
2024/01/19 00:34:04;;;;;;;67.97;31.52;;;;;;;;;;1046021;28;20041;-64
2024/01/19 00:34:35;;;;;;;71.35;33.08;;;;;;;;;;1043152;28;20059;-65
2024/01/19 00:35:06;;;;;;;69.38;32.75;;;;;;;;;;1043072;28;20094;-65
2024/01/19 00:35:36;;;;;;;69.85;32.83;;;;;;;;;;1042885;28;20086;-64
2024/01/19 00:36:07;;;;;;;68.38;32.97;;;;;;;;;;1041754;28;20100;-65
2024/01/19 00:36:38;;;;;;;64.20;30.92;;;;;;;;;;1042679;28;20389;-65
2024/01/19 00:37:08;;;;;;;70.22;33.40;;;;;;;;;;1046546;28;21656;-63
2024/01/19 00:37:39;;;;;;;62.08;31.63;;;;;;;;;;1042711;28;20044;-65
2024/01/19 00:38:09;;;;;;;78.55;35.42;;;;;;;;;;1042850;28;20123;-64
2024/01/19 00:38:39;;;;;;;77.15;33.92;;;;;;;;;;1045835;28;20053;-64
2024/01/19 00:39:10;;;;;;;61.78;32.72;;;;;;;;;;1046967;28;20049;-64
2024/01/19 00:39:41;;;;;;;67.88;33.55;;;;;;;;;;1046060;28;20514;-64
2024/01/19 00:40:11;;;;;;;65.90;34.60;;;;;;;;;;1046739;28;20036;-64
2024/01/19 00:40:43;;;;;;;76.05;33.38;;;;;;;;;;1045937;28;20404;-65
2024/01/19 00:41:14;;;;;;;66.93;33.20;;;;;;;;;;1047190;28;20121;-65
2024/01/19 00:41:45;;;;;;;69.78;33.40;;;;;;;;;;1045693;28;20513;-65
2024/01/19 00:42:16;;;;;;;77.65;33.85;;;;;;;;;;1046698;28;20049;-65
2024/01/19 00:42:46;;;;;;;65.25;32.15;;;;;;;;;;1046560;28;20056;-65
2024/01/19 00:43:17;;;;;;;70.13;33.55;;;;;;;;;;1046316;28;20056;-64
2024/01/19 00:43:47;;;;;;;66.57;32.28;;;;;;;;;;1046652;28;20110;-64
2024/01/19 00:44:18;;;;;;;60.55;31.45;;;;;;;;;;1046517;28;20412;-65
2024/01/19 00:44:49;;;;;;;62.63;32.70;;;;;;;;;;1044212;28;20048;-65
2024/01/19 00:45:19;;;;;;;58.50;27.77;;;;;;;;;;1042315;28;20056;-65
2024/01/19 00:45:50;;;;;;;58.67;27.13;;;;;;;;;;1042330;28;20128;-64
2024/01/19 00:46:21;;;;;;;57.20;26.50;;;;;;;;;;1042397;28;20102;-64
2024/01/19 00:46:51;;;;;;;60.67;28.92;;;;;;;;;;1043107;28;20500;-65
2024/01/19 00:47:22;;;;;;;65.75;29.73;;;;;;;;;;1047146;28;20072;-64
2024/01/19 00:47:52;;;;;;;58.42;29.52;;;;;;;;;;1041637;28;20056;-64
2024/01/19 00:48:23;;;;;;;57.92;29.38;;;;;;;;;;1042897;28;20107;-65
2024/01/19 00:48:53;;;;;;;57.72;28.75;;;;;;;;;;1042077;28;20413;-65
2024/01/19 00:49:24;;;;;;;57.88;26.27;;;;;;;;;;1043027;28;20037;-65
2024/01/19 00:49:54;;;;;;;68.07;30.45;;;;;;;;;;1041998;28;20068;-64
2024/01/19 00:50:25;;;;;;;61.55;30.05;;;;;;;;;;1046101;28;20400;-65
2024/01/19 00:50:56;;;;;;;64.32;30.42;;;;;;;;;;1042761;28;20174;-64
2024/01/19 00:51:26;;;;;;;67.05;31.98;;;;;;;;;;1043406;28;20041;-64
2024/01/19 00:51:57;;;;;;;61.88;32.15;;;;;;;;;;1042098;28;20158;-64
2024/01/19 00:52:27;;;;;;;65.13;31.63;;;;;;;;;;1041693;28;20055;-64
2024/01/19 00:52:58;;;;;;;69.32;32.65;;;;;;;;;;1042063;28;20488;-64
2024/01/19 00:53:28;;;;;;;70.80;32.75;;;;;;;;;;1042119;28;20102;-64
2024/01/19 00:53:59;;;;;;;64.35;30.77;;;;;;;;;;1042530;28;20482;-64
2024/01/19 00:54:30;;;;;;;62.60;31.73;;;;;;;;;;1045009;28;20064;-64
2024/01/19 00:55:00;;;;;;;61.45;31.42;;;;;;;;;;1046733;28;20044;-64
2024/01/19 00:55:31;;;;;;;64.50;33.33;;;;;;;;;;1042255;28;20041;-64
2024/01/19 00:56:03;;;;;;;58.03;29.83;;;;;;;;;;1041973;28;20075;-64
2024/01/19 00:56:33;;;;;;;57.97;28.38;;;;;;;;;;1042688;28;20037;-65
2024/01/19 00:57:04;;;;;;;64.78;31.67;;;;;;;;;;1045856;28;20045;-64
2024/01/19 00:57:34;;;;;;;67.80;30.00;;;;;;;;;;1047047;28;20685;-64
2024/01/19 00:58:05;;;;;;;67.93;32.67;;;;;;;;;;1045548;28;20119;-64
2024/01/19 00:58:37;;;;;;;72.68;32.80;;;;;;;;;;1044443;28;20048;-64
2024/01/19 00:59:08;;;;;;;57.47;29.30;;;;;;;;;;1042043;28;20057;-64
2024/01/19 00:59:38;;;;;;;55.97;26.67;;;;;;;;;;1042744;28;20509;-64
2024/01/19 01:00:09;;;;;;;57.97;27.23;;;;;;;;;;1046369;28;20051;-64
2024/01/19 01:00:40;;;;;;;58.58;29.38;;;;;;;;;;1046319;28;20040;-64
2024/01/19 01:01:12;;;;;;;65.45;30.05;;;;;;;;;;1046391;28;20040;-64
2024/01/19 01:01:44;;;;;;;60.08;30.15;;;;;;;;;;1050414;28;20044;-65
2024/01/19 01:02:14;;;;;;;62.63;30.90;;;;;;;;;;1050790;28;20476;-64
2024/01/19 01:02:45;;;;;;;61.90;30.63;;;;;;;;;;1045619;28;20480;-64
2024/01/19 01:03:26;;;;;;;69.53;32.78;;;;;;;;;;1046711;28;20045;-64
2024/01/19 01:03:58;;;;;;;52.90;25.20;;;;;;;;;;1050113;28;20047;-64
2024/01/19 01:04:29;;;;;;;51.15;26.08;;;;;;;;;;1051702;28;20510;-64
2024/01/19 01:05:00;;;;;;;63.13;29.05;;;;;;;;;;1050338;28;20783;-65
2024/01/19 01:05:31;;;;;;;51.65;25.73;;;;;;;;;;1051738;28;20052;-64
2024/01/19 01:06:01;;;;;;;58.25;27.70;;;;;;;;;;1048402;28;20048;-64
2024/01/19 01:06:31;;;;;;;63.17;28.15;;;;;;;;;;1049333;28;20048;-65
2024/01/19 01:07:02;;;;;;;57.38;27.40;;;;;;;;;;1046843;28;20044;-64
2024/01/19 01:07:33;;;;;;;59.03;29.75;;;;;;;;;;1047789;28;20127;-64
2024/01/19 01:08:03;;;;;;;55.50;28.35;;;;;;;;;;1049563;28;20109;-64
2024/01/19 01:08:37;;;;;;;60.80;28.50;;;;;;;;;;1047080;28;20516;-64
2024/01/19 01:09:08;;;;;;;61.17;28.40;;;;;;;;;;1047024;28;20064;-64
2024/01/19 01:09:38;;;;;;;51.38;26.52;;;;;;;;;;1046455;28;20049;-65
2024/01/19 01:10:09;;;;;;;50.28;25.67;;;;;;;;;;1047721;28;20063;-65
2024/01/19 01:10:39;;;;;;;57.72;29.05;;;;;;;;;;1049977;28;20044;-64
2024/01/19 01:11:10;;;;;;;43.67;23.75;;;;;;;;;;1050894;28;20102;-64
2024/01/19 01:11:40;;;;;;;49.22;25.45;;;;;;;;;;1050798;28;20506;-64
2024/01/19 01:12:11;;;;;;;57.55;27.50;;;;;;;;;;1051970;28;20161;-64
2024/01/19 01:12:41;;;;;;;53.40;27.33;;;;;;;;;;1050690;28;20051;-64
2024/01/19 01:13:12;;;;;;;51.80;27.60;;;;;;;;;;1051887;28;20116;-64
2024/01/19 01:13:42;;;;;;;54.15;28.38;;;;;;;;;;1051203;28;20056;-64
2024/01/19 01:14:15;;;;;;;58.22;28.13;;;;;;;;;;1051228;28;20047;-64
2024/01/19 01:14:47;;;;;;;51.67;25.58;;;;;;;;;;1051235;28;20048;-64
2024/01/19 01:15:17;;;;;;;57.00;27.38;;;;;;;;;;1048728;28;20040;-64
2024/01/19 01:15:48;;;;;;;57.75;29.50;;;;;;;;;;1050570;28;20056;-64
2024/01/19 01:16:19;;;;;;;65.38;29.83;;;;;;;;;;1051095;28;20112;-64
2024/01/19 01:16:49;;;;;;;66.28;29.52;;;;;;;;;;1051049;28;20044;-64
2024/01/19 01:17:19;;;;;;;67.13;31.00;;;;;;;;;;1050923;28;20048;-65
2024/01/19 01:17:51;;;;;;;63.30;29.60;;;;;;;;;;1051364;28;20051;-65
2024/01/19 01:18:21;;;;;;;58.33;28.08;;;;;;;;;;1050421;28;20050;-65
2024/01/19 01:18:52;;;;;;;61.20;29.65;;;;;;;;;;1050673;28;20046;-65
2024/01/19 01:19:22;;;;;;;60.92;30.50;;;;;;;;;;1052064;28;20072;-65
2024/01/19 01:19:53;;;;;;;62.10;30.30;;;;;;;;;;1050682;28;20060;-65
2024/01/19 01:20:23;;;;;;;55.17;27.00;;;;;;;;;;1052039;28;20419;-65
2024/01/19 01:20:54;;;;;;;54.95;26.02;;;;;;;;;;1050939;28;20055;-64
2024/01/19 01:21:25;;;;;;;57.33;26.73;;;;;;;;;;1051895;28;20131;-65
2024/01/19 01:21:55;;;;;;;55.67;27.95;;;;;;;;;;1050758;28;20052;-65
2024/01/19 01:22:26;;;;;;;58.72;27.83;;;;;;;;;;1047932;28;20585;-64
2024/01/19 01:22:57;;;;;;;52.75;28.10;;;;;;;;;;1047005;28;20057;-64
2024/01/19 01:23:27;;;;;;;55.55;26.40;;;;;;;;;;1050340;28;20043;-64
2024/01/19 01:23:58;;;;;;;59.28;27.42;;;;;;;;;;1051179;28;20500;-64
2024/01/19 01:24:28;;;;;;;59.63;27.55;;;;;;;;;;1050151;28;20078;-64
2024/01/19 01:24:59;;;;;;;61.55;27.38;;;;;;;;;;1048533;28;20400;-64
2024/01/19 01:25:30;;;;;;;52.35;25.05;;;;;;;;;;1048326;28;20128;-65
2024/01/19 01:26:01;;;;;;;53.13;26.50;;;;;;;;;;1047418;28;20059;-65
2024/01/19 01:26:31;;;;;;;51.33;27.27;;;;;;;;;;1047010;28;20268;-64
2024/01/19 01:27:02;;;;;;;51.00;25.20;;;;;;;;;;1047215;28;20041;-64
2024/01/19 01:27:33;;;;;;;52.30;25.65;;;;;;;;;;1047777;28;20718;-64
2024/01/19 01:28:03;;;;;;;58.55;25.33;;;;;;;;;;1050581;28;20044;-65
2024/01/19 01:28:34;;;;;;;54.60;26.02;;;;;;;;;;1051922;28;20589;-64
2024/01/19 01:29:04;;;;;;;53.13;24.92;;;;;;;;;;1047655;28;20492;-64
2024/01/19 01:29:35;;;;;;;50.30;24.00;;;;;;;;;;1047736;28;20452;-64
2024/01/19 01:30:07;;;;;;;50.45;23.50;;;;;;;;;;1046115;28;20059;-65
2024/01/19 01:30:40;;;;;;;48.80;23.80;;;;;;;;;;1047119;28;20051;-64
2024/01/19 01:31:10;;;;;;;51.58;25.05;;;;;;;;;;1048757;28;20044;-65
2024/01/19 01:31:41;;;;;;;50.97;25.08;;;;;;;;;;1047433;28;20053;-64
2024/01/19 01:32:12;;;;;;;50.97;24.67;;;;;;;;;;1047116;28;20115;-64
2024/01/19 01:32:42;;;;;;;43.90;22.13;;;;;;;;;;1047276;28;20131;-65
2024/01/19 01:33:13;;;;;;;54.38;26.17;;;;;;;;;;1047199;28;20091;-65
2024/01/19 01:33:43;;;;;;;58.75;26.25;;;;;;;;;;1050125;28;20455;-65
2024/01/19 01:34:14;;;;;;;52.50;25.50;;;;;;;;;;1047824;28;20059;-64
2024/01/19 01:34:45;;;;;;;58.50;26.50;;;;;;;;;;1046639;28;20040;-65
2024/01/19 01:35:15;;;;;;;48.40;24.15;;;;;;;;;;1047882;28;20048;-64
2024/01/19 01:35:45;;;;;;;53.17;25.63;;;;;;;;;;1046355;28;20401;-65
2024/01/19 01:36:16;;;;;;;56.40;25.67;;;;;;;;;;1049181;28;20160;-64
2024/01/19 01:36:46;;;;;;;50.72;25.13;;;;;;;;;;1049934;28;20040;-65
2024/01/19 01:37:17;;;;;;;55.20;26.08;;;;;;;;;;1047747;28;20440;-65
2024/01/19 01:37:48;;;;;;;60.38;26.98;;;;;;;;;;1047416;28;20860;-65
2024/01/19 01:38:18;;;;;;;52.83;26.02;;;;;;;;;;1047681;28;20044;-65
2024/01/19 01:38:49;;;;;;;54.13;25.73;;;;;;;;;;1047358;28;20044;-64
2024/01/19 01:39:20;;;;;;;52.33;26.15;;;;;;;;;;1049088;28;20069;-65
2024/01/19 01:39:50;;;;;;;52.25;25.35;;;;;;;;;;1047296;28;20668;-64
2024/01/19 01:40:21;;;;;;;48.38;24.58;;;;;;;;;;1048350;28;20143;-64
2024/01/19 01:40:52;;;;;;;50.92;24.35;;;;;;;;;;1047521;28;20056;-65
2024/01/19 01:41:22;;;;;;;59.85;26.00;;;;;;;;;;1047291;28;20048;-64
2024/01/19 01:41:53;;;;;;;51.35;26.33;;;;;;;;;;1048945;28;20078;-65
2024/01/19 01:42:23;;;;;;;59.10;27.50;;;;;;;;;;1050358;28;20048;-64
2024/01/19 01:43:01;;;;;;;59.10;25.80;;;;;;;;;;1046585;28;20148;-64
2024/01/19 01:43:31;;;;;;;67.28;27.15;;;;;;;;;;1050570;28;20063;-65
2024/01/19 01:44:04;;;;;;;53.28;27.35;;;;;;;;;;1046369;28;20049;-64
2024/01/19 01:44:35;;;;;;;59.25;27.65;;;;;;;;;;1047202;28;20044;-64
2024/01/19 01:45:06;;;;;;;60.53;28.10;;;;;;;;;;1046276;28;20064;-65
2024/01/19 01:45:36;;;;;;;57.90;27.10;;;;;;;;;;1046998;28;20045;-65
2024/01/19 01:46:07;;;;;;;60.50;28.80;;;;;;;;;;1047115;28;20048;-64
2024/01/19 01:46:37;;;;;;;55.42;26.45;;;;;;;;;;1047304;28;20041;-65
2024/01/19 01:47:08;;;;;;;63.20;28.67;;;;;;;;;;1046892;28;20775;-65
2024/01/19 01:47:38;;;;;;;59.70;27.08;;;;;;;;;;1049905;28;20048;-65
2024/01/19 01:48:09;;;;;;;58.67;27.02;;;;;;;;;;1047787;28;20048;-64
2024/01/19 01:48:40;;;;;;;62.95;26.83;;;;;;;;;;1047194;28;20422;-65
2024/01/19 01:49:10;;;;;;;60.42;28.08;;;;;;;;;;1047588;28;20097;-64
2024/01/19 01:49:41;;;;;;;55.83;25.10;;;;;;;;;;1047962;28;20048;-65
2024/01/19 01:50:11;;;;;;;67.55;27.42;;;;;;;;;;1051890;28;20052;-65
2024/01/19 01:50:42;;;;;;;53.03;26.10;;;;;;;;;;1050548;28;20857;-65
2024/01/19 01:51:13;;;;;;;61.55;28.05;;;;;;;;;;1052045;28;20105;-65
2024/01/19 01:51:45;;;;;;;63.58;28.92;;;;;;;;;;1050623;28;20456;-65
2024/01/19 01:52:16;;;;;;;54.72;27.02;;;;;;;;;;1051608;28;20044;-64
2024/01/19 01:52:46;;;;;;;58.08;26.98;;;;;;;;;;1047801;28;20048;-65
2024/01/19 01:53:18;;;;;;;59.90;26.88;;;;;;;;;;1047533;28;20496;-64
2024/01/19 01:53:49;;;;;;;55.70;27.00;;;;;;;;;;1046783;28;20427;-65
2024/01/19 01:54:19;;;;;;;55.92;26.65;;;;;;;;;;1049789;28;20433;-65
2024/01/19 01:54:52;;;;;;;63.83;27.70;;;;;;;;;;1050110;28;20040;-64
2024/01/19 01:55:22;;;;;;;64.45;29.05;;;;;;;;;;1047229;28;20048;-65
2024/01/19 01:55:53;;;;;;;55.88;25.83;;;;;;;;;;1046902;28;20066;-65
2024/01/19 01:56:25;;;;;;;54.05;26.23;;;;;;;;;;1047454;28;20079;-65
2024/01/19 01:56:56;;;;;;;54.00;27.45;;;;;;;;;;1050034;28;20048;-64
2024/01/19 01:57:27;;;;;;;67.38;29.40;;;;;;;;;;1051031;28;20044;-65
2024/01/19 01:57:57;;;;;;;65.57;27.67;;;;;;;;;;1051317;28;20048;-65
2024/01/19 01:58:28;;;;;;;61.03;28.40;;;;;;;;;;1051876;28;20044;-65
2024/01/19 01:58:58;;;;;;;61.60;28.05;;;;;;;;;;1050285;28;20048;-64
2024/01/19 01:59:30;;;;;;;61.05;28.42;;;;;;;;;;1049744;28;20094;-64
2024/01/19 02:00:00;;;;;;;63.85;27.67;;;;;;;;;;1050625;28;20052;-65
2024/01/19 02:00:32;;;;;;;65.95;28.08;;;;;;;;;;1051847;28;20067;-64
2024/01/19 02:01:03;;;;;;;62.17;27.33;;;;;;;;;;1050844;28;20048;-64
2024/01/19 02:01:34;;;;;;;56.08;25.58;;;;;;;;;;1047609;28;20055;-65
2024/01/19 02:02:05;;;;;;;53.45;24.58;;;;;;;;;;1046701;28;20457;-64
2024/01/19 02:02:37;;;;;;;64.03;26.63;;;;;;;;;;1049444;28;22646;-64
2024/01/19 02:03:08;;;;;;;66.18;27.55;;;;;;;;;;1046763;28;20048;-64
2024/01/19 02:03:39;;;;;;;63.55;28.73;;;;;;;;;;1050166;28;20047;-64
2024/01/19 02:04:11;;;;;;;51.55;25.45;;;;;;;;;;1047746;28;20041;-65
2024/01/19 02:04:41;;;;;;;59.60;24.83;;;;;;;;;;1046674;28;20382;-64
2024/01/19 02:05:12;;;;;;;50.60;25.75;;;;;;;;;;1047723;28;20486;-64
2024/01/19 02:05:42;;;;;;;59.63;25.58;;;;;;;;;;1050014;28;20055;-65
2024/01/19 02:06:13;;;;;;;56.22;25.08;;;;;;;;;;1051951;28;20101;-65
2024/01/19 02:06:44;;;;;;;56.00;25.90;;;;;;;;;;1050558;28;20082;-65
2024/01/19 02:07:15;;;;;;;52.35;25.50;;;;;;;;;;1051830;28;20048;-65
2024/01/19 02:07:45;;;;;;;54.63;25.42;;;;;;;;;;1050581;28;20392;-65
2024/01/19 02:08:16;;;;;;;59.25;25.58;;;;;;;;;;1051708;28;20455;-64
2024/01/19 02:08:46;;;;;;;56.17;26.13;;;;;;;;;;1051011;28;20056;-65
2024/01/19 02:09:17;;;;;;;50.80;25.92;;;;;;;;;;1051029;28;20047;-65
2024/01/19 02:09:47;;;;;;;66.97;29.48;;;;;;;;;;1046849;28;20374;-64
2024/01/19 02:10:18;;;;;;;52.90;24.92;;;;;;;;;;1049494;28;20145;-65
2024/01/19 02:10:48;;;;;;;52.42;24.27;;;;;;;;;;1051120;28;20052;-65
2024/01/19 02:11:19;;;;;;;54.47;25.60;;;;;;;;;;1047598;28;20151;-65
2024/01/19 02:11:50;;;;;;;60.45;27.38;;;;;;;;;;1046809;28;20440;-64
2024/01/19 02:12:21;;;;;;;62.17;27.90;;;;;;;;;;1047495;28;20102;-64
2024/01/19 02:12:53;;;;;;;57.92;26.50;;;;;;;;;;1046601;28;20052;-65
2024/01/19 02:13:23;;;;;;;60.50;26.50;;;;;;;;;;1047817;28;20055;-65
2024/01/19 02:13:54;;;;;;;63.08;26.55;;;;;;;;;;1050693;28;20155;-65
2024/01/19 02:14:25;;;;;;;56.65;25.73;;;;;;;;;;1049574;28;20049;-64
2024/01/19 02:14:57;;;;;;;54.97;23.95;;;;;;;;;;1046615;28;20101;-64
2024/01/19 02:15:27;;;;;;;50.80;23.73;;;;;;;;;;1049515;28;20053;-64
2024/01/19 02:16:00;;;;;;;52.92;25.38;;;;;;;;;;1050629;28;20048;-64
2024/01/19 02:16:30;;;;;;;58.75;26.75;;;;;;;;;;1048278;28;20076;-65
2024/01/19 02:17:01;;;;;;;65.45;27.73;;;;;;;;;;1049250;28;20044;-64
2024/01/19 02:17:31;;;;;;;62.78;25.15;;;;;;;;;;1051302;28;20398;-65
2024/01/19 02:18:02;;;;;;;62.03;24.52;;;;;;;;;;1050886;28;20052;-65
2024/01/19 02:18:33;;;;;;;50.92;22.05;;;;;;;;;;1051291;28;20123;-64
2024/01/19 02:19:04;;;;;;;51.63;27.05;;;;;;;;;;1048007;28;20044;-64
2024/01/19 02:19:35;;;;;;;54.80;25.58;;;;;;;;;;1049914;28;20381;-65
2024/01/19 02:20:07;;;;;;;58.17;24.60;;;;;;;;;;1050770;28;20079;-64
2024/01/19 02:20:37;;;;;;;63.50;27.85;;;;;;;;;;1050829;28;20399;-64
2024/01/19 02:21:08;;;;;;;59.70;26.55;;;;;;;;;;1051610;28;20416;-64
2024/01/19 02:21:39;;;;;;;54.88;25.10;;;;;;;;;;1050424;28;20048;-65
2024/01/19 02:22:09;;;;;;;59.08;26.30;;;;;;;;;;1049398;28;20051;-64
2024/01/19 02:22:42;;;;;;;57.30;26.98;;;;;;;;;;1046700;28;20056;-65
2024/01/19 02:23:16;;;;;;;53.97;24.98;;;;;;;;;;1049664;28;20047;-64
2024/01/19 02:23:54;;;;;;;51.80;23.02;;;;;;;;;;1050919;28;20434;-64
2024/01/19 02:24:24;;;;;;;57.50;25.63;;;;;;;;;;1051532;28;20072;-65
2024/01/19 02:24:55;;;;;;;65.57;26.40;;;;;;;;;;1048925;28;20048;-64
2024/01/19 02:25:26;;;;;;;56.50;24.90;;;;;;;;;;1050434;28;20032;-64
2024/01/19 02:25:57;;;;;;;48.15;23.98;;;;;;;;;;1050720;28;20135;-64
2024/01/19 02:26:32;;;;;;;61.08;25.90;;;;;;;;;;1051426;28;20066;-64
2024/01/19 02:27:04;;;;;;;54.03;25.63;;;;;;;;;;1050968;28;20047;-64
2024/01/19 02:27:35;;;;;;;54.65;24.65;;;;;;;;;;1051448;28;20036;-64
2024/01/19 02:28:06;;;;;;;62.65;26.67;;;;;;;;;;1049665;28;20044;-65
2024/01/19 02:28:36;;;;;;;57.55;24.65;;;;;;;;;;1047105;28;20500;-65
2024/01/19 02:29:07;;;;;;;53.33;25.00;;;;;;;;;;1051661;28;20458;-64
2024/01/19 02:29:37;;;;;;;61.28;26.05;;;;;;;;;;1050581;28;20044;-64
2024/01/19 02:30:09;;;;;;;62.08;26.40;;;;;;;;;;1049968;28;20495;-64
2024/01/19 02:30:41;;;;;;;62.97;26.85;;;;;;;;;;1049686;28;20094;-65
2024/01/19 02:31:11;;;;;;;51.05;23.95;;;;;;;;;;1051541;28;20765;-64
2024/01/19 02:31:42;;;;;;;60.97;27.38;;;;;;;;;;1050416;28;20534;-64
2024/01/19 02:32:12;;;;;;;59.45;26.30;;;;;;;;;;1047773;28;20037;-64
2024/01/19 02:32:43;;;;;;;61.47;26.67;;;;;;;;;;1046571;28;20052;-64
2024/01/19 02:33:13;;;;;;;63.20;27.25;;;;;;;;;;1050409;28;20043;-64
2024/01/19 02:33:44;;;;;;;56.88;23.92;;;;;;;;;;1049624;28;20059;-64
2024/01/19 02:34:14;;;;;;;54.53;25.67;;;;;;;;;;1051204;28;21087;-64
2024/01/19 02:34:46;;;;;;;52.00;24.38;;;;;;;;;;1051192;28;20510;-64
2024/01/19 02:35:16;;;;;;;59.35;25.85;;;;;;;;;;1051164;28;20048;-64
2024/01/19 02:35:47;;;;;;;59.35;26.65;;;;;;;;;;1050653;28;20130;-64
2024/01/19 02:36:17;;;;;;;57.08;25.73;;;;;;;;;;1048587;28;20049;-65
2024/01/19 02:36:48;;;;;;;57.83;26.17;;;;;;;;;;1046393;28;20077;-64
2024/01/19 02:37:20;;;;;;;53.97;24.38;;;;;;;;;;1046859;28;20477;-64
2024/01/19 02:37:51;;;;;;;56.40;24.00;;;;;;;;;;1046855;28;20037;-65
2024/01/19 02:38:22;;;;;;;59.55;25.40;;;;;;;;;;1047709;28;20059;-64
2024/01/19 02:38:52;;;;;;;55.00;25.27;;;;;;;;;;1049974;28;20044;-64
2024/01/19 02:39:23;;;;;;;61.97;25.65;;;;;;;;;;1051555;28;20032;-64
2024/01/19 02:39:54;;;;;;;58.45;24.08;;;;;;;;;;1050738;28;20052;-64
2024/01/19 02:40:24;;;;;;;56.90;25.77;;;;;;;;;;1051731;28;20063;-65
2024/01/19 02:40:55;;;;;;;64.20;25.92;;;;;;;;;;1050370;28;20143;-64
2024/01/19 02:41:25;;;;;;;61.92;25.50;;;;;;;;;;1051716;28;20048;-65
2024/01/19 02:41:56;;;;;;;48.20;23.63;;;;;;;;;;1049509;28;20116;-64
2024/01/19 02:42:29;;;;;;;57.17;25.45;;;;;;;;;;1047105;28;20051;-64
2024/01/19 02:42:59;;;;;;;63.53;24.95;;;;;;;;;;1046608;28;20048;-64
2024/01/19 02:43:30;;;;;;;57.25;25.00;;;;;;;;;;1047378;28;20057;-64
2024/01/19 02:44:00;;;;;;;60.13;26.50;;;;;;;;;;1046827;28;20051;-64
2024/01/19 02:44:32;;;;;;;62.85;26.77;;;;;;;;;;1050220;28;20044;-64
2024/01/19 02:45:03;;;;;;;53.85;23.58;;;;;;;;;;1051172;28;20135;-64
2024/01/19 02:45:33;;;;;;;61.20;24.92;;;;;;;;;;1051151;28;20084;-64
2024/01/19 02:46:04;;;;;;;53.92;23.38;;;;;;;;;;1048512;28;20078;-64
2024/01/19 02:46:38;;;;;;;60.63;25.38;;;;;;;;;;1047031;28;20044;-65
2024/01/19 02:47:08;;;;;;;54.70;22.27;;;;;;;;;;1050570;28;20056;-64
2024/01/19 02:47:39;;;;;;;59.38;26.85;;;;;;;;;;1048140;28;20131;-64
2024/01/19 02:48:12;;;;;;;58.85;27.02;;;;;;;;;;1047418;28;20056;-65
2024/01/19 02:48:42;;;;;;;59.95;24.63;;;;;;;;;;1050837;28;20055;-64
2024/01/19 02:49:13;;;;;;;63.50;26.25;;;;;;;;;;1051076;28;20059;-65
2024/01/19 02:49:43;;;;;;;62.15;24.63;;;;;;;;;;1051014;28;20058;-64
2024/01/19 02:50:14;;;;;;;62.35;26.83;;;;;;;;;;1049713;28;20043;-64
2024/01/19 02:50:44;;;;;;;57.40;25.52;;;;;;;;;;1049974;28;20466;-65
2024/01/19 02:51:15;;;;;;;51.30;25.40;;;;;;;;;;1051282;28;20052;-64
2024/01/19 02:51:45;;;;;;;57.50;25.45;;;;;;;;;;1050562;28;20051;-65
2024/01/19 02:52:16;;;;;;;59.88;26.48;;;;;;;;;;1051694;28;20098;-65
2024/01/19 02:52:46;;;;;;;56.10;24.60;;;;;;;;;;1050593;28;20381;-64
2024/01/19 02:53:17;;;;;;;59.28;25.17;;;;;;;;;;1051408;28;20051;-64
2024/01/19 02:53:48;;;;;;;58.42;27.35;;;;;;;;;;1047555;28;20063;-64
2024/01/19 02:54:18;;;;;;;52.80;22.67;;;;;;;;;;1048125;28;20048;-64
2024/01/19 02:54:49;;;;;;;56.95;23.92;;;;;;;;;;1046085;28;20461;-64
2024/01/19 02:55:19;;;;;;;56.90;24.42;;;;;;;;;;1048507;28;20126;-64
2024/01/19 02:55:50;;;;;;;54.65;24.35;;;;;;;;;;1050517;28;20117;-65
2024/01/19 02:56:20;;;;;;;59.45;25.77;;;;;;;;;;1051097;28;20162;-64
2024/01/19 02:56:51;;;;;;;58.30;25.08;;;;;;;;;;1049018;28;20052;-65
2024/01/19 02:57:22;;;;;;;64.50;26.33;;;;;;;;;;1050981;28;20420;-65
2024/01/19 02:57:52;;;;;;;56.30;24.67;;;;;;;;;;1050906;28;20552;-65
2024/01/19 02:58:23;;;;;;;65.88;25.55;;;;;;;;;;1048177;28;20049;-64
2024/01/19 02:58:53;;;;;;;57.00;25.48;;;;;;;;;;1048820;28;20071;-64
2024/01/19 02:59:24;;;;;;;60.88;27.23;;;;;;;;;;1051072;28;20052;-64
2024/01/19 02:59:54;;;;;;;54.88;25.73;;;;;;;;;;1050682;28;20051;-64